createdAt,value
2018-11-28T00:00:39.552Z,4.61
2018-11-28T00:01:39.699Z,4.60
2018-11-28T00:02:39.859Z,4.56
2018-11-28T00:03:39.978Z,4.71
2018-11-28T00:04:40.107Z,4.59
2018-11-28T00:05:40.275Z,4.59
2018-11-28T00:06:40.397Z,4.60
2018-11-28T00:07:40.524Z,4.61
2018-11-28T00:08:40.679Z,4.74
2018-11-28T00:09:40.800Z,4.60
2018-11-28T00:10:40.955Z,4.64
2018-11-28T00:11:41.081Z,4.64
2018-11-28T00:12:41.214Z,4.57
2018-11-28T00:13:41.349Z,4.60
2018-11-28T00:14:41.479Z,4.57
2018-11-28T00:15:41.635Z,4.59
2018-11-28T00:16:41.771Z,4.61
2018-11-28T00:17:41.896Z,4.61
2018-11-28T00:18:42.050Z,4.42
2018-11-28T00:19:42.176Z,4.51
2018-11-28T00:20:42.322Z,4.49
2018-11-28T00:21:42.468Z,4.53
2018-11-28T00:22:42.604Z,4.35
2018-11-28T00:23:42.728Z,4.41
2018-11-28T00:24:42.877Z,4.56
2018-11-28T00:25:43.024Z,4.51
2018-11-28T00:26:43.152Z,4.43
2018-11-28T00:27:43.281Z,4.51
2018-11-28T00:28:43.421Z,4.60
2018-11-28T00:29:43.554Z,4.59
2018-11-28T00:30:43.682Z,4.61
2018-11-28T00:31:43.941Z,4.60
2018-11-28T00:34:15.993Z,4.56
2018-11-28T00:35:16.133Z,4.59
2018-11-28T00:36:16.263Z,4.64
2018-11-28T00:37:16.413Z,4.61
2018-11-28T00:38:16.544Z,4.59
2018-11-28T00:39:16.668Z,4.72
2018-11-28T00:40:16.797Z,4.59
2018-11-28T00:41:16.945Z,4.72
2018-11-28T00:42:17.066Z,4.60
2018-11-28T00:43:17.194Z,4.67
2018-11-28T00:44:17.326Z,4.64
2018-11-28T00:45:17.481Z,4.75
2018-11-28T00:46:17.611Z,4.67
2018-11-28T00:47:17.733Z,4.66
2018-11-28T00:48:17.871Z,4.54
2018-11-28T00:49:17.992Z,4.60
2018-11-28T00:50:18.119Z,4.59
2018-11-28T00:51:18.244Z,4.53
2018-11-28T00:52:18.384Z,4.46
2018-11-28T00:53:18.505Z,4.46
2018-11-28T00:54:18.639Z,4.56
2018-11-28T00:55:18.759Z,4.51
2018-11-28T00:56:18.913Z,4.57
2018-11-28T00:57:19.033Z,4.56
2018-11-28T00:58:19.162Z,4.51
2018-11-28T00:59:19.286Z,4.51
2018-11-28T01:00:19.440Z,4.49
2018-11-28T01:01:19.567Z,4.53
2018-11-28T01:02:19.693Z,4.56
2018-11-28T01:03:19.820Z,4.61
2018-11-28T01:04:19.970Z,4.51
2018-11-28T01:05:20.090Z,4.49
2018-11-28T01:06:20.212Z,4.48
2018-11-28T01:07:20.343Z,4.59
2018-11-28T01:08:20.492Z,4.61
2018-11-28T01:09:20.615Z,4.57
2018-11-28T01:10:20.745Z,4.59
2018-11-28T01:11:20.896Z,4.57
2018-11-28T01:12:21.026Z,4.61
2018-11-28T01:13:21.243Z,4.54
2018-11-28T01:14:21.248Z,4.56
2018-11-28T01:15:21.391Z,4.57
2018-11-28T01:16:21.519Z,4.59
2018-11-28T01:17:21.645Z,4.61
2018-11-28T01:18:21.776Z,4.59
2018-11-28T01:19:21.934Z,4.60
2018-11-28T01:20:22.041Z,4.67
2018-11-28T01:21:22.166Z,4.71
2018-11-28T01:22:22.287Z,4.61
2018-11-28T01:23:22.432Z,4.72
2018-11-28T01:24:22.566Z,4.63
2018-11-28T01:25:22.700Z,4.71
2018-11-28T01:26:22.823Z,4.74
2018-11-28T01:27:22.987Z,4.67
2018-11-28T01:28:23.118Z,4.74
2018-11-28T01:29:23.247Z,4.66
2018-11-28T01:30:23.474Z,4.74
2018-11-28T01:31:23.509Z,4.69
2018-11-28T01:32:23.635Z,4.72
2018-11-28T01:33:23.760Z,4.71
2018-11-28T01:34:23.884Z,4.67
2018-11-28T01:35:24.033Z,4.69
2018-11-28T01:36:24.160Z,4.75
2018-11-28T01:37:24.288Z,4.66
2018-11-28T01:38:24.415Z,4.69
2018-11-28T01:39:24.561Z,4.74
2018-11-28T01:40:24.688Z,4.72
2018-11-28T01:41:24.818Z,4.63
2018-11-28T01:42:24.950Z,4.69
2018-11-28T01:43:25.083Z,4.74
2018-11-28T01:44:25.208Z,4.72
2018-11-28T01:45:25.339Z,4.79
2018-11-28T01:46:25.488Z,4.79
2018-11-28T01:47:25.615Z,4.77
2018-11-28T01:48:25.743Z,4.77
2018-11-28T01:49:25.894Z,4.78
2018-11-28T01:50:26.022Z,4.72
2018-11-28T01:51:26.151Z,4.72
2018-11-28T01:52:26.306Z,4.79
2018-11-28T01:53:26.443Z,4.79
2018-11-28T01:54:26.566Z,4.82
2018-11-28T01:55:26.694Z,4.82
2018-11-28T01:56:26.906Z,4.77
2018-11-28T01:57:26.988Z,4.71
2018-11-28T01:58:27.123Z,4.85
2018-11-28T01:59:27.246Z,4.85
2018-11-28T02:00:27.401Z,4.91
2018-11-28T02:01:27.522Z,4.85
2018-11-28T02:02:27.653Z,4.75
2018-11-28T02:03:27.778Z,4.77
2018-11-28T02:04:27.921Z,4.86
2018-11-28T02:05:28.045Z,4.89
2018-11-28T02:06:28.175Z,4.89
2018-11-28T02:07:28.321Z,4.82
2018-11-28T02:08:28.443Z,4.86
2018-11-28T02:09:28.576Z,4.82
2018-11-28T02:10:28.717Z,4.79
2018-11-28T02:11:28.838Z,4.86
2018-11-28T02:12:28.966Z,4.91
2018-11-28T02:13:29.149Z,4.85
2018-11-28T02:14:29.262Z,4.88
2018-11-28T02:15:29.388Z,4.85
2018-11-28T02:16:29.573Z,4.83
2018-11-28T02:17:29.716Z,4.88
2018-11-28T02:18:29.842Z,4.75
2018-11-28T02:19:29.972Z,4.93
2018-11-28T02:20:30.097Z,4.78
2018-11-28T02:21:30.244Z,4.79
2018-11-28T02:22:30.371Z,4.74
2018-11-28T02:23:30.502Z,4.69
2018-11-28T02:24:30.637Z,4.82
2018-11-28T02:25:30.787Z,4.67
2018-11-28T02:26:30.912Z,4.74
2018-11-28T02:27:31.041Z,4.72
2018-11-28T02:28:31.173Z,4.69
2018-11-28T02:29:31.320Z,4.72
2018-11-28T02:30:31.450Z,4.69
2018-11-28T02:31:31.581Z,4.72
2018-11-28T02:32:31.708Z,4.75
2018-11-28T02:33:31.860Z,4.79
2018-11-28T02:34:31.984Z,4.83
2018-11-28T02:35:32.122Z,4.67
2018-11-28T02:36:32.276Z,4.67
2018-11-28T02:37:32.401Z,4.63
2018-11-28T02:38:32.531Z,4.60
2018-11-28T02:39:32.663Z,4.69
2018-11-28T02:40:32.806Z,4.72
2018-11-28T02:41:32.929Z,4.69
2018-11-28T02:42:33.055Z,4.60
2018-11-28T02:43:33.205Z,4.64
2018-11-28T02:44:33.340Z,4.60
2018-11-28T02:45:34.210Z,4.74
2018-11-28T02:46:33.651Z,4.71
2018-11-28T02:47:33.761Z,4.60
2018-11-28T02:48:33.893Z,4.71
2018-11-28T02:49:34.027Z,4.72
2018-11-28T02:50:34.153Z,4.72
2018-11-28T02:51:34.279Z,4.83
2018-11-28T02:52:34.412Z,4.72
2018-11-28T02:53:34.566Z,4.82
2018-11-28T02:54:34.685Z,4.78
2018-11-28T02:55:34.816Z,4.82
2018-11-28T02:56:34.939Z,4.78
2018-11-28T02:57:35.096Z,4.88
2018-11-28T02:58:35.218Z,4.79
2018-11-28T02:59:35.351Z,4.91
2018-11-28T03:00:35.484Z,4.88
2018-11-28T03:01:35.631Z,4.82
2018-11-28T03:02:35.762Z,4.85
2018-11-28T03:03:35.909Z,4.85
2018-11-28T03:04:36.041Z,4.77
2018-11-28T03:05:36.164Z,4.75
2018-11-28T03:06:36.293Z,4.75
2018-11-28T03:07:36.437Z,4.79
2018-11-28T03:08:36.561Z,4.78
2018-11-28T03:09:36.689Z,4.75
2018-11-28T03:10:36.819Z,4.75
2018-11-28T03:11:36.982Z,4.74
2018-11-28T03:12:37.103Z,4.77
2018-11-28T03:13:37.228Z,4.75
2018-11-28T03:14:37.427Z,4.79
2018-11-28T03:15:37.423Z,4.78
2018-11-28T03:16:37.553Z,4.82
2018-11-28T03:17:37.687Z,4.74
2018-11-28T03:18:37.820Z,4.83
2018-11-28T03:19:37.946Z,4.77
2018-11-28T03:20:38.083Z,4.82
2018-11-28T03:21:38.233Z,4.83
2018-11-28T03:22:38.358Z,4.89
2018-11-28T03:23:38.493Z,4.74
2018-11-28T03:24:38.662Z,4.71
2018-11-28T03:25:38.794Z,4.85
2018-11-28T03:26:38.921Z,4.78
2018-11-28T03:27:39.049Z,4.77
2018-11-28T03:28:39.220Z,4.82
2018-11-28T03:29:39.344Z,4.91
2018-11-28T03:30:39.474Z,4.74
2018-11-28T03:31:39.608Z,4.79
2018-11-28T03:32:39.752Z,4.71
2018-11-28T03:33:39.870Z,4.61
2018-11-28T03:34:45.292Z,4.74
2018-11-28T03:35:40.151Z,4.69
2018-11-28T03:36:40.275Z,4.67
2018-11-28T03:37:40.403Z,4.72
2018-11-28T03:38:40.528Z,4.75
2018-11-28T03:39:40.672Z,4.64
2018-11-28T03:40:40.794Z,4.71
2018-11-28T03:41:40.927Z,4.67
2018-11-28T03:42:41.055Z,4.72
2018-11-28T03:43:41.225Z,4.71
2018-11-28T03:44:41.369Z,4.74
2018-11-28T03:45:41.483Z,4.77
2018-11-28T03:46:41.611Z,4.74
2018-11-28T03:47:41.771Z,4.74
2018-11-28T03:48:41.908Z,4.71
2018-11-28T03:49:42.022Z,4.77
2018-11-28T03:50:42.190Z,4.78
2018-11-28T03:51:42.317Z,4.66
2018-11-28T03:52:42.447Z,4.67
2018-11-28T03:53:42.579Z,4.60
2018-11-28T03:54:42.752Z,4.69
2018-11-28T03:55:42.878Z,4.72
2018-11-28T03:56:43.010Z,4.77
2018-11-28T03:57:43.144Z,4.71
2018-11-28T03:58:43.282Z,4.78
2018-11-28T03:59:43.409Z,4.67
2018-11-28T04:00:43.578Z,4.72
2018-11-28T04:01:43.743Z,4.82
2018-11-28T04:02:43.869Z,4.83
2018-11-28T04:03:43.996Z,4.78
2018-11-28T04:04:44.137Z,4.82
2018-11-28T04:05:44.260Z,4.74
2018-11-28T04:06:44.391Z,4.79
2018-11-28T04:07:44.521Z,4.79
2018-11-28T04:08:44.664Z,4.78
2018-11-28T04:09:44.791Z,4.78
2018-11-28T04:10:44.926Z,4.82
2018-11-28T04:11:45.053Z,4.79
2018-11-28T04:12:45.226Z,4.78
2018-11-28T04:13:45.324Z,4.79
2018-11-28T04:14:45.459Z,4.82
2018-11-28T04:15:45.586Z,4.79
2018-11-28T04:16:45.718Z,4.78
2018-11-28T04:17:45.845Z,4.77
2018-11-28T04:18:45.973Z,4.75
2018-11-28T04:19:46.143Z,4.77
2018-11-28T04:20:46.266Z,4.85
2018-11-28T04:21:46.402Z,4.94
2018-11-28T04:22:46.533Z,4.82
2018-11-28T04:23:46.662Z,4.82
2018-11-28T04:24:46.783Z,4.85
2018-11-28T04:25:46.945Z,4.88
2018-11-28T04:26:47.067Z,4.83
2018-11-28T04:27:47.205Z,4.88
2018-11-28T04:28:47.321Z,4.89
2018-11-28T04:29:47.485Z,4.83
2018-11-28T04:30:47.616Z,4.88
2018-11-28T04:31:47.744Z,4.82
2018-11-28T04:32:47.884Z,4.77
2018-11-28T04:33:48.020Z,4.82
2018-11-28T04:34:48.150Z,4.77
2018-11-28T04:35:48.283Z,4.72
2018-11-28T04:36:48.419Z,4.64
2018-11-28T04:37:48.539Z,4.71
2018-11-28T04:38:48.679Z,4.78
2018-11-28T04:39:48.804Z,4.75
2018-11-28T04:40:48.961Z,4.71
2018-11-28T04:41:49.092Z,4.82
2018-11-28T04:42:49.207Z,4.77
2018-11-28T04:43:49.353Z,4.85
2018-11-28T04:44:49.477Z,4.82
2018-11-28T04:45:49.610Z,4.79
2018-11-28T04:46:49.736Z,4.79
2018-11-28T04:47:49.882Z,4.86
2018-11-28T04:48:50.023Z,4.86
2018-11-28T04:49:50.134Z,4.89
2018-11-28T04:50:50.263Z,4.86
2018-11-28T04:51:50.407Z,4.88
2018-11-28T04:52:50.528Z,4.88
2018-11-28T04:53:50.665Z,4.94
2018-11-28T04:54:50.790Z,4.93
2018-11-28T04:55:50.943Z,4.96
2018-11-28T04:56:51.072Z,4.91
2018-11-28T04:57:51.207Z,4.94
2018-11-28T04:58:51.359Z,4.93
2018-11-28T04:59:51.474Z,5.00
2018-11-28T05:00:51.599Z,5.01
2018-11-28T05:01:51.755Z,4.93
2018-11-28T05:02:51.887Z,4.91
2018-11-28T05:03:52.021Z,4.89
2018-11-28T05:04:52.146Z,4.97
2018-11-28T05:05:52.280Z,5.04
2018-11-28T05:06:52.409Z,4.97
2018-11-28T05:07:52.538Z,5.01
2018-11-28T05:08:52.667Z,4.98
2018-11-28T05:09:52.816Z,5.03
2018-11-28T05:10:52.949Z,5.04
2018-11-28T05:11:53.074Z,5.04
2018-11-28T05:12:53.222Z,5.06
2018-11-28T05:13:53.344Z,5.06
2018-11-28T05:14:53.478Z,5.07
2018-11-28T05:15:53.614Z,5.06
2018-11-28T05:16:53.759Z,5.03
2018-11-28T05:17:53.893Z,5.00
2018-11-28T05:18:54.008Z,5.09
2018-11-28T05:19:54.135Z,5.03
2018-11-28T05:20:54.288Z,5.00
2018-11-28T05:21:54.408Z,5.04
2018-11-28T05:22:54.539Z,4.98
2018-11-28T05:23:54.665Z,5.00
2018-11-28T05:24:54.815Z,5.03
2018-11-28T05:25:54.928Z,5.00
2018-11-28T05:26:55.058Z,5.03
2018-11-28T05:27:55.188Z,5.01
2018-11-28T05:28:55.343Z,4.98
2018-11-28T05:29:55.475Z,5.06
2018-11-28T05:30:55.609Z,4.96
2018-11-28T05:31:55.739Z,4.91
2018-11-28T05:32:55.868Z,4.96
2018-11-28T05:33:55.996Z,4.88
2018-11-28T05:34:56.122Z,4.98
2018-11-28T05:35:56.260Z,4.96
2018-11-28T05:36:56.392Z,5.01
2018-11-28T05:37:56.512Z,5.00
2018-11-28T05:38:56.641Z,5.00
2018-11-28T05:39:56.781Z,5.06
2018-11-28T05:40:56.902Z,4.93
2018-11-28T05:41:57.035Z,4.88
2018-11-28T05:42:57.162Z,4.91
2018-11-28T05:43:57.296Z,4.93
2018-11-28T05:44:57.423Z,4.89
2018-11-28T05:45:57.547Z,4.88
2018-11-28T05:46:57.677Z,4.96
2018-11-28T05:47:57.827Z,4.89
2018-11-28T05:48:57.948Z,4.86
2018-11-28T05:49:58.075Z,4.82
2018-11-28T05:50:58.203Z,4.82
2018-11-28T05:51:58.367Z,4.79
2018-11-28T05:52:58.485Z,4.72
2018-11-28T05:53:58.617Z,4.72
2018-11-28T05:54:58.747Z,4.60
2018-11-28T05:55:58.884Z,4.63
2018-11-28T05:56:59.011Z,4.59
2018-11-28T05:57:59.134Z,4.49
2018-11-28T05:58:59.283Z,4.49
2018-11-28T05:59:59.431Z,4.63
2018-11-28T06:00:59.540Z,4.54
2018-11-28T06:01:59.714Z,4.60
2018-11-28T06:02:59.750Z,4.59
2018-11-28T06:03:59.954Z,4.66
2018-11-28T06:05:00.033Z,4.60
2018-11-28T06:06:00.163Z,4.59
2018-11-28T06:07:00.304Z,4.56
2018-11-28T06:08:00.425Z,4.54
2018-11-28T06:09:00.552Z,4.53
2018-11-28T06:10:00.680Z,4.63
2018-11-28T06:11:00.810Z,4.63
2018-11-28T06:12:01.022Z,4.61
2018-11-28T06:13:01.026Z,4.59
2018-11-28T06:14:01.157Z,4.57
2018-11-28T06:15:01.296Z,4.54
2018-11-28T06:16:01.463Z,4.53
2018-11-28T06:17:01.639Z,4.60
2018-11-28T06:18:01.761Z,4.48
2018-11-28T06:19:01.899Z,4.57
2018-11-28T06:20:02.026Z,4.60
2018-11-28T06:21:02.205Z,4.60
2018-11-28T06:22:02.331Z,4.57
2018-11-28T06:23:02.456Z,4.56
2018-11-28T06:24:02.588Z,4.57
2018-11-28T06:25:02.719Z,4.57
2018-11-28T06:26:02.848Z,4.53
2018-11-28T06:27:02.972Z,4.54
2018-11-28T06:28:03.106Z,4.56
2018-11-28T06:29:03.243Z,4.54
2018-11-28T06:30:03.372Z,4.53
2018-11-28T06:31:03.508Z,4.54
2018-11-28T06:32:03.636Z,4.51
2018-11-28T06:33:03.766Z,4.48
2018-11-28T06:34:03.900Z,4.53
2018-11-28T06:35:04.027Z,4.45
2018-11-28T06:36:04.156Z,4.42
2018-11-28T06:37:04.282Z,4.49
2018-11-28T06:38:04.414Z,4.45
2018-11-28T06:39:04.539Z,4.41
2018-11-28T06:40:04.666Z,4.45
2018-11-28T06:41:04.791Z,4.49
2018-11-28T06:42:04.923Z,4.48
2018-11-28T06:43:05.050Z,4.54
2018-11-28T06:44:05.184Z,4.51
2018-11-28T06:45:05.311Z,4.38
2018-11-28T06:46:05.440Z,4.31
2018-11-28T06:47:05.574Z,4.42
2018-11-28T06:48:05.696Z,4.31
2018-11-28T06:49:05.831Z,4.38
2018-11-28T06:50:05.959Z,4.31
2018-11-28T06:51:06.089Z,4.41
2018-11-28T06:52:06.213Z,4.49
2018-11-28T06:53:06.348Z,4.48
2018-11-28T06:54:06.479Z,4.51
2018-11-28T06:55:06.607Z,4.43
2018-11-28T06:56:06.740Z,4.51
2018-11-28T06:57:06.865Z,4.46
2018-11-28T06:58:06.996Z,4.45
2018-11-28T06:59:07.132Z,4.54
2018-11-28T07:00:07.260Z,4.48
2018-11-28T07:01:07.387Z,4.46
2018-11-28T07:02:07.521Z,4.42
2018-11-28T07:03:07.650Z,4.38
2018-11-28T07:04:07.783Z,4.43
2018-11-28T07:05:07.910Z,4.49
2018-11-28T07:06:08.040Z,4.41
2018-11-28T07:07:08.173Z,4.51
2018-11-28T07:08:08.299Z,4.46
2018-11-28T07:09:08.434Z,4.46
2018-11-28T07:10:09.481Z,4.36
2018-11-28T07:11:08.695Z,4.43
2018-11-28T07:12:08.821Z,4.36
2018-11-28T07:13:08.959Z,4.43
2018-11-28T07:14:09.082Z,4.38
2018-11-28T07:15:09.213Z,4.41
2018-11-28T07:16:09.344Z,4.31
2018-11-28T07:17:09.474Z,4.34
2018-11-28T07:18:09.605Z,4.36
2018-11-28T07:19:09.743Z,4.36
2018-11-28T07:20:09.878Z,4.26
2018-11-28T07:21:10.008Z,4.28
2018-11-28T07:22:10.135Z,4.26
2018-11-28T07:23:10.264Z,4.18
2018-11-28T07:24:10.397Z,4.26
2018-11-28T07:25:10.529Z,4.26
2018-11-28T07:26:10.661Z,4.28
2018-11-28T07:27:10.786Z,4.21
2018-11-28T07:28:10.921Z,4.23
2018-11-28T07:29:11.045Z,4.27
2018-11-28T07:30:11.171Z,4.27
2018-11-28T07:31:11.304Z,4.34
2018-11-28T07:32:11.439Z,4.24
2018-11-28T07:33:11.577Z,4.28
2018-11-28T07:34:11.703Z,4.27
2018-11-28T07:35:11.829Z,4.36
2018-11-28T07:36:11.972Z,4.31
2018-11-28T07:37:12.087Z,4.36
2018-11-28T07:38:12.216Z,4.20
2018-11-28T07:39:12.347Z,4.28
2018-11-28T07:40:12.474Z,4.23
2018-11-28T07:41:12.597Z,4.20
2018-11-28T07:42:12.757Z,4.26
2018-11-28T07:43:12.863Z,4.28
2018-11-28T07:44:12.987Z,4.20
2018-11-28T07:45:13.141Z,4.08
2018-11-28T07:46:13.255Z,4.20
2018-11-28T07:47:13.380Z,4.18
2018-11-28T07:48:13.515Z,4.10
2018-11-28T07:49:13.648Z,4.31
2018-11-28T07:50:13.862Z,4.27
2018-11-28T07:51:13.865Z,4.21
2018-11-28T07:52:13.993Z,4.30
2018-11-28T07:53:15.044Z,4.30
2018-11-28T07:54:14.251Z,4.35
2018-11-28T07:55:14.408Z,4.30
2018-11-28T07:56:14.527Z,4.34
2018-11-28T07:57:14.662Z,4.31
2018-11-28T07:58:14.791Z,4.35
2018-11-28T07:59:14.943Z,4.31
2018-11-28T08:00:15.069Z,4.41
2018-11-28T08:01:15.223Z,4.39
2018-11-28T08:02:15.337Z,4.39
2018-11-28T08:03:15.496Z,4.38
2018-11-28T08:04:15.625Z,4.36
2018-11-28T08:05:15.749Z,4.45
2018-11-28T08:06:15.876Z,4.42
2018-11-28T08:07:16.034Z,4.38
2018-11-28T08:08:16.155Z,4.35
2018-11-28T08:09:16.291Z,4.42
2018-11-28T08:10:16.414Z,4.39
2018-11-28T08:11:16.624Z,4.41
2018-11-28T08:13:48.765Z,4.45
2018-11-28T08:14:48.899Z,4.38
2018-11-28T08:15:49.076Z,4.46
2018-11-28T08:16:49.180Z,4.46
2018-11-28T08:17:49.330Z,4.46
2018-11-28T08:18:49.433Z,4.48
2018-11-28T08:19:49.581Z,4.54
2018-11-28T08:20:49.707Z,4.51
2018-11-28T08:21:49.845Z,4.57
2018-11-28T08:22:49.991Z,4.48
2018-11-28T08:23:50.117Z,4.53
2018-11-28T08:24:50.332Z,4.60
2018-11-28T08:25:50.326Z,4.59
2018-11-28T08:26:50.455Z,4.64
2018-11-28T08:27:50.583Z,4.59
2018-11-28T08:28:50.763Z,4.60
2018-11-28T08:29:50.983Z,4.60
2018-11-28T08:30:50.981Z,4.57
2018-11-28T08:31:51.111Z,4.54
2018-11-28T08:32:51.254Z,4.60
2018-11-28T08:33:51.373Z,4.56
2018-11-28T08:34:51.505Z,4.56
2018-11-28T08:35:51.635Z,4.57
2018-11-28T08:36:51.800Z,4.59
2018-11-28T08:37:51.928Z,4.63
2018-11-28T08:38:52.067Z,4.74
2018-11-28T08:39:52.194Z,4.72
2018-11-28T08:40:52.345Z,4.67
2018-11-28T08:41:52.470Z,4.83
2018-11-28T08:42:52.604Z,4.69
2018-11-28T08:43:52.734Z,4.82
2018-11-28T08:44:52.967Z,4.85
2018-11-28T08:45:53.027Z,4.85
2018-11-28T08:46:53.154Z,4.93
2018-11-28T08:47:53.282Z,4.91
2018-11-28T08:48:53.442Z,4.94
2018-11-28T08:49:53.572Z,5.03
2018-11-28T08:50:53.765Z,5.07
2018-11-28T08:51:53.781Z,5.09
2018-11-28T08:52:53.934Z,5.04
2018-11-28T08:53:54.065Z,5.06
2018-11-28T08:54:54.223Z,5.09
2018-11-28T08:55:54.321Z,5.11
2018-11-28T08:56:54.463Z,4.98
2018-11-28T08:57:54.589Z,5.06
2018-11-28T08:58:54.716Z,5.14
2018-11-28T08:59:54.847Z,5.12
2018-11-28T09:00:54.994Z,5.21
2018-11-28T09:01:55.123Z,5.22
2018-11-28T09:02:55.250Z,5.40
2018-11-28T09:03:55.378Z,5.27
2018-11-28T09:04:55.527Z,5.16
2018-11-28T09:05:55.733Z,5.18
2018-11-28T09:06:55.738Z,5.14
2018-11-28T09:07:55.944Z,5.12
2018-11-28T09:08:55.957Z,5.06
2018-11-28T09:09:56.170Z,5.09
2018-11-28T09:10:56.173Z,5.07
2018-11-28T09:11:56.303Z,5.22
2018-11-28T09:12:56.475Z,5.24
2018-11-28T09:13:56.581Z,5.27
2018-11-28T09:14:56.725Z,5.24
2018-11-28T09:15:56.853Z,5.19
2018-11-28T09:16:57.014Z,5.29
2018-11-28T09:17:57.127Z,5.37
2018-11-28T09:18:57.256Z,5.32
2018-11-28T09:19:57.385Z,5.33
2018-11-28T09:20:57.535Z,5.47
2018-11-28T09:21:57.687Z,5.41
2018-11-28T09:22:57.819Z,5.55
2018-11-28T09:23:58.030Z,5.55
2018-11-28T09:24:58.125Z,5.61
2018-11-28T09:25:58.254Z,5.72
2018-11-28T09:26:58.381Z,5.76
2018-11-28T09:27:58.525Z,5.80
2018-11-28T09:28:58.644Z,5.77
2018-11-28T09:29:58.771Z,5.79
2018-11-28T09:30:58.897Z,5.88
2018-11-28T09:31:59.026Z,5.97
2018-11-28T09:32:59.152Z,5.90
2018-11-28T09:33:59.277Z,5.95
2018-11-28T09:34:59.409Z,6.03
2018-11-28T09:35:59.564Z,6.02
2018-11-28T09:36:59.688Z,6.05
2018-11-28T09:37:59.812Z,6.09
2018-11-28T09:38:59.942Z,6.18
2018-11-28T09:40:00.079Z,6.09
2018-11-28T09:41:00.209Z,6.21
2018-11-28T09:42:00.333Z,6.15
2018-11-28T09:43:00.475Z,6.09
2018-11-28T09:44:00.673Z,6.28
2018-11-28T09:45:00.754Z,6.25
2018-11-28T09:46:00.891Z,6.24
2018-11-28T09:47:01.032Z,6.13
2018-11-28T09:48:01.168Z,6.18
2018-11-28T09:49:01.305Z,6.15
2018-11-28T09:50:01.422Z,6.27
2018-11-28T09:51:01.595Z,6.11
2018-11-28T09:52:01.727Z,6.18
2018-11-28T09:53:01.865Z,6.19
2018-11-28T09:54:02.620Z,6.09
2018-11-28T09:55:02.157Z,6.06
2018-11-28T09:56:02.284Z,5.98
2018-11-28T09:57:02.413Z,5.91
2018-11-28T09:58:02.545Z,6.00
2018-11-28T09:59:02.674Z,6.09
2018-11-28T10:00:02.810Z,6.15
2018-11-28T10:01:02.943Z,6.19
2018-11-28T10:02:03.076Z,6.16
2018-11-28T10:03:03.207Z,6.28
2018-11-28T10:04:03.336Z,6.37
2018-11-28T10:05:03.582Z,6.40
2018-11-28T10:06:03.697Z,6.56
2018-11-28T10:07:03.734Z,6.53
2018-11-28T10:08:03.874Z,6.45
2018-11-28T10:09:03.998Z,6.52
2018-11-28T10:10:04.131Z,6.46
2018-11-28T10:11:04.266Z,6.46
2018-11-28T10:12:04.403Z,6.40
2018-11-28T10:13:04.552Z,6.55
2018-11-28T10:14:04.680Z,6.55
2018-11-28T10:15:04.812Z,6.64
2018-11-28T10:16:04.946Z,6.65
2018-11-28T10:17:05.081Z,6.63
2018-11-28T10:18:05.210Z,6.68
2018-11-28T10:19:05.365Z,6.65
2018-11-28T10:20:05.504Z,6.71
2018-11-28T10:21:05.626Z,6.75
2018-11-28T10:22:05.758Z,6.85
2018-11-28T10:23:05.890Z,6.79
2018-11-28T10:24:06.024Z,6.86
2018-11-28T10:25:06.159Z,6.86
2018-11-28T10:26:06.291Z,7.01
2018-11-28T10:27:06.422Z,6.97
2018-11-28T10:28:06.572Z,6.99
2018-11-28T10:29:06.703Z,6.99
2018-11-28T10:30:06.833Z,7.03
2018-11-28T10:31:06.959Z,7.13
2018-11-28T10:32:07.110Z,7.24
2018-11-28T10:33:07.235Z,7.25
2018-11-28T10:34:07.366Z,7.26
2018-11-28T10:35:07.499Z,7.36
2018-11-28T10:36:07.643Z,7.26
2018-11-28T10:37:07.773Z,7.26
2018-11-28T10:38:07.900Z,7.25
2018-11-28T10:39:08.037Z,7.21
2018-11-28T10:40:08.198Z,7.21
2018-11-28T10:41:08.468Z,7.43
2018-11-28T10:42:08.461Z,7.39
2018-11-28T10:43:08.594Z,7.47
2018-11-28T10:44:08.723Z,7.54
2018-11-28T10:45:08.870Z,7.58
2018-11-28T10:46:09.003Z,7.66
2018-11-28T10:47:09.134Z,7.60
2018-11-28T10:48:09.268Z,7.58
2018-11-28T10:49:09.405Z,7.66
2018-11-28T10:50:09.556Z,7.66
2018-11-28T10:51:09.685Z,7.78
2018-11-28T10:52:09.817Z,7.88
2018-11-28T10:53:09.950Z,7.81
2018-11-28T10:54:10.085Z,7.81
2018-11-28T10:55:10.214Z,7.81
2018-11-28T10:56:10.352Z,7.92
2018-11-28T10:57:10.492Z,7.98
2018-11-28T10:58:10.927Z,7.99
2018-11-28T10:59:10.750Z,8.13
2018-11-28T11:00:10.883Z,8.24
2018-11-28T11:01:11.014Z,8.46
2018-11-28T11:02:11.143Z,8.42
2018-11-28T11:03:11.278Z,8.71
2018-11-28T11:04:11.413Z,8.74
2018-11-28T11:05:11.552Z,8.75
2018-11-28T11:06:11.709Z,8.78
2018-11-28T11:07:11.843Z,9.01
2018-11-28T11:08:11.977Z,9.06
2018-11-28T11:09:12.120Z,9.04
2018-11-28T11:10:12.257Z,9.09
2018-11-28T11:11:12.382Z,9.18
2018-11-28T11:12:12.550Z,9.16
2018-11-28T11:13:12.696Z,9.44
2018-11-28T11:14:12.831Z,9.57
2018-11-28T11:15:12.962Z,9.60
2018-11-28T11:16:13.101Z,9.59
2018-11-28T11:17:13.233Z,9.73
2018-11-28T11:18:13.373Z,9.83
2018-11-28T11:19:13.507Z,9.90
2018-11-28T11:20:14.108Z,10.08
2018-11-28T11:21:13.807Z,10.12
2018-11-28T11:22:13.921Z,10.10
2018-11-28T11:23:14.052Z,10.02
2018-11-28T11:24:14.196Z,9.96
2018-11-28T11:25:14.333Z,9.51
2018-11-28T11:26:14.462Z,9.47
2018-11-28T11:27:14.605Z,9.54
2018-11-28T11:28:14.744Z,9.54
2018-11-28T11:29:14.880Z,9.22
2018-11-28T11:30:15.017Z,9.26
2018-11-28T11:31:15.154Z,9.09
2018-11-28T11:32:15.291Z,8.80
2018-11-28T11:33:15.442Z,8.83
2018-11-28T11:34:15.617Z,8.68
2018-11-28T11:35:15.706Z,8.52
2018-11-28T11:36:15.844Z,8.46
2018-11-28T11:37:15.976Z,8.46
2018-11-28T11:38:16.146Z,8.39
2018-11-28T11:39:16.279Z,8.35
2018-11-28T11:40:16.422Z,8.21
2018-11-28T11:41:16.551Z,8.29
2018-11-28T11:42:16.700Z,8.26
2018-11-28T11:43:16.822Z,7.92
2018-11-28T11:44:16.955Z,7.96
2018-11-28T11:45:17.091Z,7.91
2018-11-28T11:46:17.222Z,8.09
2018-11-28T11:47:17.390Z,8.04
2018-11-28T11:48:17.587Z,8.02
2018-11-28T11:49:17.664Z,7.95
2018-11-28T11:50:17.869Z,7.94
2018-11-28T11:51:17.883Z,8.09
2018-11-28T11:52:18.017Z,7.98
2018-11-28T11:53:18.158Z,8.01
2018-11-28T11:54:18.301Z,8.13
2018-11-28T11:55:18.430Z,7.99
2018-11-28T11:56:18.578Z,7.99
2018-11-28T11:57:18.712Z,8.09
2018-11-28T11:58:18.845Z,8.16
2018-11-28T11:59:18.977Z,8.28
2018-11-28T12:00:19.139Z,8.44
2018-11-28T12:01:19.310Z,8.68
2018-11-28T12:02:19.410Z,8.72
2018-11-28T12:03:19.604Z,8.89
2018-11-28T12:04:19.676Z,8.88
2018-11-28T12:05:21.059Z,8.92
2018-11-28T12:06:19.937Z,8.77
2018-11-28T12:07:20.087Z,8.80
2018-11-28T12:08:20.215Z,8.62
2018-11-28T12:09:20.339Z,8.52
2018-11-28T12:10:20.512Z,8.28
2018-11-28T12:11:20.945Z,8.28
2018-11-28T12:12:20.800Z,8.12
2018-11-28T12:13:20.928Z,8.29
2018-11-28T12:14:21.063Z,8.16
2018-11-28T12:15:21.202Z,8.31
2018-11-28T12:16:21.706Z,8.37
2018-11-28T12:17:21.463Z,8.32
2018-11-28T12:18:21.594Z,8.34
2018-11-28T12:19:21.793Z,8.19
2018-11-28T12:20:21.908Z,8.24
2018-11-28T12:21:21.920Z,8.24
2018-11-28T12:22:22.050Z,8.28
2018-11-28T12:23:22.213Z,8.26
2018-11-28T12:24:22.343Z,8.16
2018-11-28T12:25:22.477Z,8.17
2018-11-28T12:26:22.607Z,7.95
2018-11-28T12:27:22.753Z,7.81
2018-11-28T12:28:22.877Z,7.83
2018-11-28T12:29:23.015Z,7.78
2018-11-28T12:30:23.147Z,7.76
2018-11-28T12:31:23.297Z,7.69
2018-11-28T12:32:23.421Z,7.76
2018-11-28T12:33:23.574Z,7.84
2018-11-28T12:34:23.685Z,7.76
2018-11-28T12:35:23.833Z,7.62
2018-11-28T12:36:23.978Z,7.78
2018-11-28T12:37:24.112Z,7.91
2018-11-28T12:38:24.258Z,7.80
2018-11-28T12:39:24.404Z,7.84
2018-11-28T12:40:24.535Z,7.88
2018-11-28T12:41:24.672Z,7.84
2018-11-28T12:42:24.836Z,7.80
2018-11-28T12:43:24.968Z,7.88
2018-11-28T12:44:25.097Z,7.99
2018-11-28T12:45:25.228Z,8.01
2018-11-28T12:46:25.363Z,8.04
2018-11-28T12:47:25.491Z,8.02
2018-11-28T12:48:25.621Z,7.98
2018-11-28T12:49:25.753Z,8.13
2018-11-28T12:50:25.906Z,8.02
2018-11-28T12:51:26.029Z,7.96
2018-11-28T12:52:26.160Z,8.02
2018-11-28T12:53:26.294Z,8.02
2018-11-28T12:54:26.454Z,7.98
2018-11-28T12:55:26.578Z,8.04
2018-11-28T12:56:26.709Z,8.09
2018-11-28T12:57:26.840Z,8.12
2018-11-28T12:58:26.969Z,8.26
2018-11-28T12:59:27.089Z,8.47
2018-11-28T13:00:27.215Z,8.56
2018-11-28T13:01:27.350Z,8.71
2018-11-28T13:02:27.517Z,8.67
2018-11-28T13:03:27.650Z,8.57
2018-11-28T13:04:27.777Z,8.41
2018-11-28T13:05:27.944Z,8.37
2018-11-28T13:06:28.121Z,8.28
2018-11-28T13:07:28.249Z,8.26
2018-11-28T13:08:28.389Z,8.14
2018-11-28T13:09:28.525Z,8.41
2018-11-28T13:10:28.687Z,8.42
2018-11-28T13:11:28.799Z,8.41
2018-11-28T13:12:28.951Z,8.37
2018-11-28T13:13:29.086Z,8.52
2018-11-28T13:14:29.218Z,8.47
2018-11-28T13:15:29.352Z,8.59
2018-11-28T13:16:29.491Z,8.65
2018-11-28T13:17:29.625Z,8.59
2018-11-28T13:18:29.754Z,8.71
2018-11-28T13:19:29.894Z,8.83
2018-11-28T13:20:30.085Z,8.96
2018-11-28T13:21:30.193Z,9.01
2018-11-28T13:22:30.335Z,8.92
2018-11-28T13:23:30.503Z,8.98